createdAt,value
2022-08-11T00:02:31.621Z,33.60
2022-08-11T00:05:05.488Z,33.80
2022-08-11T00:07:33.720Z,34.10
2022-08-11T00:10:02.561Z,34.20
2022-08-11T00:12:30.973Z,34.50
2022-08-11T00:15:00.734Z,34.50
2022-08-11T00:17:32.204Z,34.50
2022-08-11T00:20:14.977Z,34.50
2022-08-11T00:22:47.372Z,34.70
2022-08-11T00:25:17.831Z,34.70
2022-08-11T00:27:47.004Z,34.60
2022-08-11T00:30:15.712Z,34.70
2022-08-11T00:32:46.571Z,34.80
2022-08-11T00:35:50.882Z,35.00
2022-08-11T00:38:07.365Z,34.90
2022-08-11T00:40:40.438Z,35.10
2022-08-11T00:43:23.115Z,35.30
2022-08-11T00:46:15.019Z,35.00
2022-08-11T00:49:00.109Z,35.10
2022-08-11T00:52:05.603Z,35.90
2022-08-11T00:54:59.562Z,35.50
2022-08-11T00:58:02.601Z,35.70
2022-08-11T01:00:43.775Z,35.80
2022-08-11T01:03:29.149Z,36.10
2022-08-11T01:06:34.881Z,36.10
2022-08-11T01:09:22.414Z,36.10
2022-08-11T01:12:36.728Z,36.20
2022-08-11T01:15:43.346Z,36.50
2022-08-11T01:19:09.639Z,37.00
2022-08-11T01:22:18.269Z,37.20
2022-08-11T01:25:56.793Z,37.00
2022-08-11T01:29:16.757Z,37.00
2022-08-11T01:32:17.331Z,37.20
2022-08-11T01:35:21.752Z,37.60
2022-08-11T01:38:28.737Z,37.70
2022-08-11T01:41:52.159Z,37.90
2022-08-11T01:44:44.818Z,38.40
2022-08-11T01:47:53.535Z,38.50
2022-08-11T01:50:53.675Z,38.90
2022-08-11T01:53:31.697Z,39.10
2022-08-11T01:56:11.341Z,38.70
2022-08-11T01:58:46.455Z,38.80
2022-08-11T02:01:38.364Z,38.80
2022-08-11T02:04:25.704Z,38.80
2022-08-11T02:07:02.441Z,38.90
2022-08-11T02:09:55.233Z,38.70
2022-08-11T02:12:38.701Z,38.60
2022-08-11T02:15:16.281Z,38.60
2022-08-11T02:18:05.078Z,38.80
2022-08-11T02:20:56.142Z,38.70
2022-08-11T02:24:04.878Z,38.90
2022-08-11T02:26:41.983Z,38.70
2022-08-11T02:29:19.465Z,38.70
2022-08-11T02:32:25.857Z,38.70
2022-08-11T02:35:06.056Z,38.70
2022-08-11T02:37:40.159Z,38.90
2022-08-11T02:40:16.857Z,39.10
2022-08-11T02:42:59.341Z,39.10
2022-08-11T02:45:40.896Z,39.30
2022-08-11T02:48:34.600Z,39.50
2022-08-11T02:51:13.551Z,39.50
2022-08-11T02:53:57.864Z,39.60
2022-08-11T02:56:38.829Z,39.90
2022-08-11T02:59:36.053Z,39.80
2022-08-11T03:02:12.297Z,39.50
2022-08-11T03:05:02.030Z,39.50
2022-08-11T03:07:35.925Z,40.20
2022-08-11T03:10:10.887Z,40.40
2022-08-11T03:13:03.992Z,40.10
2022-08-11T03:16:00.021Z,40.30
2022-08-11T03:18:35.458Z,40.30
2022-08-11T03:21:11.228Z,40.30
2022-08-11T03:23:46.562Z,40.30
2022-08-11T03:26:24.467Z,40.30
2022-08-11T03:29:02.112Z,40.30
2022-08-11T03:31:36.110Z,40.70
2022-08-11T03:34:08.353Z,40.80
2022-08-11T03:37:17.824Z,41.40
2022-08-11T03:39:58.638Z,41.30
2022-08-11T03:42:33.211Z,41.30
2022-08-11T03:45:08.281Z,40.90
2022-08-11T03:48:04.720Z,40.80
2022-08-11T03:50:53.112Z,41.00
2022-08-11T03:53:50.557Z,40.70
2022-08-11T03:56:58.710Z,40.40
2022-08-11T03:59:51.226Z,40.50
2022-08-11T04:02:51.035Z,40.40
2022-08-11T04:05:50.582Z,40.40
2022-08-11T04:08:54.357Z,40.40
2022-08-11T04:11:52.664Z,41.10
2022-08-11T04:15:01.782Z,40.80
2022-08-11T04:17:59.125Z,41.50
2022-08-11T04:21:03.911Z,42.60
2022-08-11T04:24:35.707Z,42.50
2022-08-11T04:27:19.388Z,42.50
2022-08-11T04:30:04.994Z,42.00
2022-08-11T04:32:50.374Z,41.30
2022-08-11T04:35:33.896Z,41.10
2022-08-11T04:38:37.602Z,41.00
2022-08-11T04:42:02.642Z,41.10
2022-08-11T04:45:02.787Z,40.90
2022-08-11T04:48:15.944Z,41.00
2022-08-11T04:51:20.168Z,41.20
2022-08-11T04:54:17.649Z,41.80
2022-08-11T04:57:06.809Z,41.70
2022-08-11T05:00:06.790Z,41.40
2022-08-11T05:03:08.451Z,41.70
2022-08-11T05:06:10.581Z,41.50
2022-08-11T05:09:01.047Z,42.00
2022-08-11T05:11:51.832Z,41.50
2022-08-11T05:14:53.536Z,41.70
2022-08-11T05:17:52.963Z,42.10
2022-08-11T05:20:43.341Z,41.90
2022-08-11T05:23:31.159Z,42.20
2022-08-11T05:26:47.815Z,42.20
2022-08-11T05:29:45.740Z,41.80
2022-08-11T05:32:34.814Z,41.70
2022-08-11T05:35:07.321Z,41.80
2022-08-11T05:37:57.052Z,41.40
2022-08-11T05:40:50.908Z,41.30
2022-08-11T05:43:38.993Z,41.00
2022-08-11T05:46:47.183Z,40.90
2022-08-11T05:49:33.356Z,40.50
2022-08-11T05:52:21.880Z,40.60
2022-08-11T05:55:22.161Z,40.40
2022-08-11T05:57:57.395Z,40.30
2022-08-11T06:00:25.480Z,40.30
2022-08-11T06:02:55.801Z,40.70
2022-08-11T06:05:25.216Z,40.30
2022-08-11T06:07:57.367Z,40.20
2022-08-11T06:10:33.156Z,40.40
2022-08-11T06:13:02.621Z,40.00
2022-08-11T06:15:34.581Z,40.00
2022-08-11T06:18:03.775Z,39.60
2022-08-11T06:20:36.772Z,39.60
2022-08-11T06:23:06.890Z,39.40
2022-08-11T06:25:36.965Z,39.40
2022-08-11T06:28:08.162Z,39.00
2022-08-11T06:30:40.393Z,39.10
2022-08-11T06:33:11.229Z,39.00
2022-08-11T06:35:49.949Z,38.80
2022-08-11T06:38:31.921Z,38.60
2022-08-11T06:41:22.044Z,38.20
2022-08-11T06:44:04.667Z,37.60
2022-08-11T06:46:38.689Z,37.40
2022-08-11T06:49:27.765Z,37.10
2022-08-11T06:51:56.735Z,37.10
2022-08-11T06:54:31.851Z,34.30
2022-08-11T06:57:33.664Z,32.70
2022-08-11T07:00:21.069Z,32.00
2022-08-11T07:02:54.153Z,30.80
2022-08-11T07:05:26.882Z,30.10
2022-08-11T07:08:42.797Z,30.20
2022-08-11T07:12:01.717Z,29.10
2022-08-11T07:14:49.513Z,29.10
2022-08-11T07:17:22.788Z,28.90
2022-08-11T07:20:12.764Z,29.30
2022-08-11T07:23:05.256Z,28.60
2022-08-11T07:25:52.956Z,28.90
2022-08-11T07:28:42.822Z,29.20
2022-08-11T07:31:14.077Z,28.40
2022-08-11T07:34:05.565Z,28.10
2022-08-11T07:36:35.131Z,28.00
2022-08-11T07:39:04.032Z,28.40
2022-08-11T07:41:35.836Z,28.90
2022-08-11T07:44:09.851Z,28.00
2022-08-11T07:46:59.711Z,27.90
2022-08-11T07:49:50.184Z,27.90
2022-08-11T07:52:32.173Z,27.80
2022-08-11T07:55:02.610Z,27.60
2022-08-11T07:58:14.715Z,27.40
2022-08-11T08:01:01.095Z,27.70
2022-08-11T08:03:54.356Z,26.90
2022-08-11T08:06:42.368Z,26.70
2022-08-11T08:09:29.150Z,26.00
2022-08-11T08:12:15.516Z,25.50
2022-08-11T08:15:01.526Z,25.00
2022-08-11T08:18:09.264Z,24.90
2022-08-11T08:20:39.308Z,24.90
2022-08-11T08:23:09.383Z,25.50
2022-08-11T08:25:40.630Z,25.70
2022-08-11T08:28:11.067Z,25.10
2022-08-11T08:30:47.353Z,24.70
2022-08-11T08:33:17.241Z,25.50
2022-08-11T08:35:55.821Z,25.90
2022-08-11T08:38:25.431Z,25.00
2022-08-11T08:40:56.467Z,24.30
2022-08-11T08:43:25.880Z,23.60
2022-08-11T08:45:56.738Z,22.70
2022-08-11T08:48:27.309Z,22.20
2022-08-11T08:51:22.045Z,22.20
2022-08-11T08:53:56.373Z,22.30
2022-08-11T08:56:29.125Z,22.10
2022-08-11T08:58:59.993Z,22.10
2022-08-11T09:01:33.826Z,21.70
2022-08-11T09:04:09.180Z,21.70
2022-08-11T09:06:40.959Z,22.10
2022-08-11T09:09:12.280Z,22.80
2022-08-11T09:11:54.216Z,22.70
2022-08-11T09:14:24.587Z,22.60
2022-08-11T09:16:53.381Z,22.20
2022-08-11T09:19:22.719Z,23.00
2022-08-11T09:22:13.252Z,23.10
2022-08-11T09:25:00.196Z,22.80
2022-08-11T09:27:28.574Z,23.20
2022-08-11T09:29:57.049Z,24.00
2022-08-11T09:32:26.502Z,24.30
2022-08-11T09:34:55.212Z,23.80
2022-08-11T09:37:55.850Z,23.70
2022-08-11T09:40:33.542Z,22.80
2022-08-11T09:43:22.336Z,22.80
2022-08-11T09:45:52.853Z,23.00
2022-08-11T09:48:21.695Z,22.20
2022-08-11T09:50:51.081Z,21.90
2022-08-11T09:53:36.642Z,22.20
2022-08-11T09:56:31.299Z,22.90
2022-08-11T09:59:00.467Z,22.90
2022-08-11T10:01:32.221Z,21.60
2022-08-11T10:04:04.807Z,22.50
2022-08-11T10:06:54.371Z,22.30
2022-08-11T10:09:25.536Z,22.00
2022-08-11T10:11:58.890Z,21.60
2022-08-11T10:14:46.052Z,21.70
2022-08-11T10:17:16.143Z,22.10
2022-08-11T10:19:48.824Z,21.70
2022-08-11T10:22:50.544Z,21.20
2022-08-11T10:25:35.949Z,21.30
2022-08-11T10:28:18.723Z,20.90
2022-08-11T10:31:14.532Z,20.70
2022-08-11T10:34:01.565Z,20.40
2022-08-11T10:36:30.248Z,20.30
2022-08-11T10:38:59.142Z,20.60
2022-08-11T10:42:08.351Z,20.90
2022-08-11T10:44:39.687Z,21.20
2022-08-11T10:47:26.617Z,21.10
2022-08-11T10:50:09.104Z,21.00
2022-08-11T10:52:55.886Z,20.50
2022-08-11T10:55:42.701Z,20.20
2022-08-11T10:58:28.812Z,19.80
2022-08-11T11:00:58.942Z,20.30
2022-08-11T11:03:28.892Z,20.90
2022-08-11T11:06:13.311Z,20.40
2022-08-11T11:09:01.499Z,20.60
2022-08-11T11:11:57.832Z,20.70
2022-08-11T11:14:52.702Z,21.10
2022-08-11T11:17:48.616Z,21.70
2022-08-11T11:20:34.730Z,21.40
2022-08-11T11:23:08.374Z,21.30
2022-08-11T11:26:07.202Z,21.50
2022-08-11T11:29:01.178Z,21.80
2022-08-11T11:31:44.459Z,21.40
2022-08-11T11:34:28.269Z,20.50
2022-08-11T11:36:58.158Z,20.00
2022-08-11T11:39:28.751Z,20.00
2022-08-11T11:42:00.565Z,20.40
2022-08-11T11:44:29.442Z,20.30
2022-08-11T11:46:57.848Z,20.80
2022-08-11T11:49:32.155Z,20.60
2022-08-11T11:52:01.471Z,20.60
2022-08-11T11:54:33.698Z,20.80
2022-08-11T11:57:26.033Z,20.90
2022-08-11T12:00:12.173Z,21.10
2022-08-11T12:02:42.907Z,20.70
2022-08-11T12:05:14.737Z,20.30
2022-08-11T12:08:07.079Z,20.30
2022-08-11T12:10:44.008Z,20.30
2022-08-11T12:13:30.019Z,20.10
2022-08-11T12:16:31.567Z,19.80
2022-08-11T12:18:53.930Z,19.90
2022-08-11T12:21:23.815Z,19.90
2022-08-11T12:24:09.843Z,19.90
2022-08-11T12:27:17.233Z,19.90
2022-08-11T12:29:45.448Z,20.10
2022-08-11T12:32:13.776Z,20.70
2022-08-11T12:34:41.847Z,19.90
2022-08-11T12:37:13.694Z,18.80
2022-08-11T12:40:10.986Z,19.40
2022-08-11T12:43:21.717Z,19.80
2022-08-11T12:45:53.896Z,20.00
2022-08-11T12:48:58.999Z,19.70
2022-08-11T12:52:06.815Z,19.70
2022-08-11T12:54:46.704Z,20.20
2022-08-11T12:57:36.422Z,20.70
2022-08-11T13:00:24.694Z,20.30
2022-08-11T13:03:10.969Z,20.70
2022-08-11T13:05:44.845Z,20.80
2022-08-11T13:08:14.937Z,20.90
2022-08-11T13:11:03.130Z,20.70
2022-08-11T13:13:55.225Z,20.50
2022-08-11T13:16:23.075Z,20.60
2022-08-11T13:18:53.251Z,20.40
2022-08-11T13:21:22.413Z,20.50
2022-08-11T13:24:00.759Z,20.80
2022-08-11T13:26:48.529Z,20.90
2022-08-11T13:29:22.324Z,21.20
2022-08-11T13:31:50.832Z,20.80
2022-08-11T13:34:20.382Z,21.00
2022-08-11T13:36:51.843Z,20.60
2022-08-11T13:39:20.387Z,20.30
2022-08-11T13:41:50.283Z,20.50
2022-08-11T13:44:25.317Z,20.90
2022-08-11T13:46:55.149Z,21.00
2022-08-11T13:49:23.516Z,21.20
2022-08-11T13:51:52.416Z,20.60
2022-08-11T13:54:23.616Z,20.20
2022-08-11T13:56:56.703Z,20.70
2022-08-11T13:59:30.031Z,20.80
2022-08-11T14:02:21.902Z,21.00
2022-08-11T14:04:55.877Z,20.50
2022-08-11T14:07:26.827Z,20.20
2022-08-11T14:09:59.116Z,20.30
2022-08-11T14:12:50.421Z,20.20
2022-08-11T14:15:22.601Z,20.00
2022-08-11T14:18:01.081Z,20.30
2022-08-11T14:20:50.722Z,20.60
2022-08-11T14:23:20.368Z,20.70
2022-08-11T14:26:07.030Z,20.80
2022-08-11T14:28:43.805Z,20.40
2022-08-11T14:31:15.421Z,20.60
2022-08-11T14:34:00.883Z,20.00
2022-08-11T14:36:36.088Z,20.10
2022-08-11T14:39:08.448Z,20.20
2022-08-11T14:42:10.484Z,20.20
2022-08-11T14:45:17.733Z,20.50
2022-08-11T14:47:48.912Z,20.80
2022-08-11T14:50:22.955Z,20.90
2022-08-11T14:52:54.933Z,20.90
2022-08-11T14:55:42.403Z,21.00
2022-08-11T14:58:11.393Z,20.90
2022-08-11T15:00:43.195Z,21.30
2022-08-11T15:03:13.211Z,21.70
2022-08-11T15:05:55.982Z,21.30
2022-08-11T15:08:48.193Z,21.20
2022-08-11T15:11:35.629Z,21.40
2022-08-11T15:14:05.538Z,21.60
2022-08-11T15:16:53.054Z,21.80
2022-08-11T15:19:21.887Z,21.00
2022-08-11T15:22:06.804Z,21.40
2022-08-11T15:24:36.235Z,21.40
2022-08-11T15:27:24.781Z,21.10
2022-08-11T15:30:30.027Z,21.40
2022-08-11T15:33:20.540Z,21.40
2022-08-11T15:36:06.281Z,21.20
2022-08-11T15:38:36.987Z,21.20
2022-08-11T15:41:25.337Z,21.10
2022-08-11T15:44:13.116Z,21.50
2022-08-11T15:46:45.488Z,21.20
2022-08-11T15:49:22.008Z,20.80
2022-08-11T15:52:01.550Z,21.30
2022-08-11T15:54:33.402Z,21.60
2022-08-11T15:57:03.020Z,21.60
2022-08-11T15:59:52.564Z,21.60
2022-08-11T16:02:42.552Z,21.50
2022-08-11T16:05:44.975Z,21.60
2022-08-11T16:08:06.220Z,21.50
2022-08-11T16:10:37.329Z,21.90
2022-08-11T16:13:27.547Z,21.40
2022-08-11T16:16:16.606Z,21.40
2022-08-11T16:18:47.096Z,21.40
2022-08-11T16:21:34.371Z,21.20
2022-08-11T16:24:07.612Z,21.20
2022-08-11T16:27:08.257Z,21.10
2022-08-11T16:29:32.621Z,21.30
2022-08-11T16:32:22.209Z,21.30
2022-08-11T16:35:13.960Z,21.20
2022-08-11T16:38:01.842Z,21.50
2022-08-11T16:40:30.001Z,20.60
2022-08-11T16:43:16.813Z,20.80
2022-08-11T16:46:03.673Z,20.80
2022-08-11T16:48:35.756Z,21.10
2022-08-11T16:51:06.597Z,21.10
2022-08-11T16:53:59.607Z,21.10
2022-08-11T16:56:28.995Z,21.10
2022-08-11T16:59:16.570Z,21.20
2022-08-11T17:01:49.769Z,21.80
2022-08-11T17:04:39.788Z,21.50
2022-08-11T17:07:42.219Z,21.40
2022-08-11T17:10:51.598Z,21.40
2022-08-11T17:13:29.001Z,21.60
2022-08-11T17:16:11.788Z,21.60
2022-08-11T17:18:46.746Z,21.40
2022-08-11T17:21:20.202Z,21.30
2022-08-11T17:23:51.751Z,21.20
2022-08-11T17:26:27.715Z,21.70
2022-08-11T17:28:58.720Z,22.00
2022-08-11T17:31:47.523Z,22.40
2022-08-11T17:34:33.738Z,22.00
2022-08-11T17:37:02.171Z,21.80
2022-08-11T17:39:32.702Z,21.40
2022-08-11T17:42:20.501Z,21.60
2022-08-11T17:45:07.833Z,21.80
2022-08-11T17:47:53.757Z,21.70
2022-08-11T17:50:23.104Z,21.70
2022-08-11T17:53:09.743Z,22.10
2022-08-11T17:55:57.783Z,22.20
2022-08-11T17:58:45.602Z,22.30
2022-08-11T18:01:15.610Z,22.70
2022-08-11T18:03:57.761Z,22.60
2022-08-11T18:06:34.873Z,22.50
2022-08-11T18:09:23.014Z,22.70
2022-08-11T18:12:12.770Z,22.80
2022-08-11T18:15:04.008Z,23.30
2022-08-11T18:17:50.288Z,23.30
2022-08-11T18:20:36.552Z,23.50
2022-08-11T18:23:40.664Z,23.60
2022-08-11T18:26:34.817Z,23.70
2022-08-11T18:29:21.177Z,23.70
2022-08-11T18:32:12.531Z,23.80
2022-08-11T18:35:09.217Z,24.00
2022-08-11T18:37:55.788Z,24.20
2022-08-11T18:40:45.028Z,24.70
2022-08-11T18:43:32.448Z,24.80
2022-08-11T18:46:21.186Z,24.90
2022-08-11T18:49:15.748Z,25.20
2022-08-11T18:52:06.601Z,25.30
2022-08-11T18:54:55.904Z,25.50
2022-08-11T18:57:49.580Z,25.60
2022-08-11T19:00:41.041Z,25.50
2022-08-11T19:03:28.610Z,25.60
2022-08-11T19:06:38.849Z,25.70
2022-08-11T19:09:26.143Z,25.90
2022-08-11T19:12:13.268Z,26.10
2022-08-11T19:15:00.239Z,28.00
2022-08-11T19:17:48.628Z,29.20
2022-08-11T19:20:38.435Z,28.30
2022-08-11T19:23:28.521Z,27.60
2022-08-11T19:26:15.888Z,27.30
2022-08-11T19:29:05.250Z,27.20
2022-08-11T19:31:51.899Z,27.40
2022-08-11T19:34:39.402Z,27.60
2022-08-11T19:37:26.751Z,27.80
2022-08-11T19:40:16.250Z,27.90
2022-08-11T19:43:03.524Z,28.10
2022-08-11T19:45:52.693Z,27.90
2022-08-11T19:48:40.120Z,27.80
2022-08-11T19:51:27.388Z,27.70
2022-08-11T19:54:13.628Z,27.80
2022-08-11T19:57:02.357Z,27.90
2022-08-11T19:59:49.546Z,27.90
2022-08-11T20:02:35.240Z,28.20
2022-08-11T20:05:20.903Z,29.20
2022-08-11T20:08:07.892Z,29.60
2022-08-11T20:10:55.319Z,30.50
2022-08-11T20:13:44.705Z,30.60
2022-08-11T20:16:33.033Z,31.30
2022-08-11T20:19:55.755Z,30.60
2022-08-11T20:22:26.123Z,30.40
2022-08-11T20:25:13.729Z,30.90
2022-08-11T20:28:01.857Z,30.80
2022-08-11T20:30:51.691Z,31.50
2022-08-11T20:33:39.099Z,31.90
2022-08-11T20:36:26.340Z,32.70
2022-08-11T20:39:13.630Z,32.70
2022-08-11T20:42:00.968Z,33.70
2022-08-11T20:44:47.849Z,33.80
2022-08-11T20:47:56.505Z,33.80
2022-08-11T20:50:45.757Z,33.50
2022-08-11T20:53:36.026Z,34.50
2022-08-11T20:56:28.439Z,35.30
2022-08-11T20:59:18.705Z,35.20
2022-08-11T21:02:10.024Z,35.50
2022-08-11T21:04:57.801Z,36.30
2022-08-11T21:07:55.441Z,36.30
2022-08-11T21:10:46.782Z,36.40
2022-08-11T21:13:34.340Z,36.60
2022-08-11T21:16:26.806Z,36.20
2022-08-11T21:19:18.893Z,37.00
2022-08-11T21:22:28.008Z,37.60
2022-08-11T21:25:16.425Z,35.30
2022-08-11T21:28:03.745Z,34.70
2022-08-11T21:30:51.366Z,36.70
2022-08-11T21:33:45.385Z,37.60
2022-08-11T21:36:31.115Z,37.50
2022-08-11T21:39:19.036Z,38.70
2022-08-11T21:42:09.893Z,37.90
2022-08-11T21:44:57.070Z,38.80
2022-08-11T21:47:44.314Z,38.40
2022-08-11T21:50:30.031Z,40.50
2022-08-11T21:53:16.442Z,41.70
2022-08-11T21:56:03.414Z,42.80
2022-08-11T21:58:48.896Z,43.10
2022-08-11T22:01:34.826Z,44.40
2022-08-11T22:04:21.458Z,44.80
2022-08-11T22:07:09.465Z,42.90
2022-08-11T22:09:55.187Z,41.20
2022-08-11T22:12:45.147Z,40.80
2022-08-11T22:15:31.866Z,40.30
2022-08-11T22:18:20.182Z,40.20
2022-08-11T22:21:06.302Z,40.30
2022-08-11T22:23:56.370Z,41.00
2022-08-11T22:26:47.356Z,40.40
2022-08-11T22:29:50.096Z,39.90
2022-08-11T22:32:38.541Z,43.90
2022-08-11T22:35:28.450Z,42.00
2022-08-11T22:38:15.552Z,39.30
2022-08-11T22:41:01.465Z,37.20
2022-08-11T22:43:47.289Z,37.10
2022-08-11T22:46:35.098Z,36.00
2022-08-11T22:49:21.334Z,35.60
2022-08-11T22:52:08.580Z,35.40
2022-08-11T22:54:55.413Z,35.20
2022-08-11T22:57:55.185Z,34.90
2022-08-11T23:00:47.422Z,34.40
2022-08-11T23:03:38.348Z,33.20
2022-08-11T23:06:24.315Z,33.10
2022-08-11T23:09:10.662Z,33.30
2022-08-11T23:12:07.037Z,33.90
2022-08-11T23:14:56.972Z,34.10
2022-08-11T23:17:43.152Z,33.70
2022-08-11T23:20:34.504Z,33.70
2022-08-11T23:23:23.181Z,36.80
2022-08-11T23:26:11.404Z,37.60
2022-08-11T23:28:59.305Z,35.30
2022-08-11T23:31:52.902Z,33.40
2022-08-11T23:35:03.951Z,32.90
2022-08-11T23:37:47.438Z,34.10
2022-08-11T23:40:32.665Z,33.70
2022-08-11T23:43:19.373Z,33.60
2022-08-11T23:46:04.861Z,33.50
2022-08-11T23:48:51.390Z,33.00
2022-08-11T23:51:37.607Z,32.60
2022-08-11T23:54:29.949Z,32.40
2022-08-11T23:57:17.507Z,33.00
